Time;durP1;ratioP1;P1;durP2;ratioP2;P2;SDS_P1;SDS_P2;PMS_P1;PMS_P2;Temp;Humidity;BMP_temperature;BMP_pressure;BME280_temperature;BME280_humidity;BME280_pressure;Samples;Min_cycle;Max_cycle;Signal;HPM_P1;HPM_P2
2023/05/01 00:00:23;;;;;;;10.02;6.65;;;;;;;;;;5034256;28;20029;-52
2023/05/01 00:02:51;;;;;;;7.47;5.30;;;;;;;;;;5016701;28;20028;-52
2023/05/01 00:05:17;;;;;;;8.55;4.78;;;;;;;;;;5016188;28;20426;-52
2023/05/01 00:07:42;;;;;;;10.68;6.03;;;;;;;;;;5033894;28;20021;-52
2023/05/01 00:10:08;;;;;;;7.40;5.25;;;;;;;;;;5033846;28;20042;-52
2023/05/01 00:12:33;;;;;;;8.00;5.07;;;;;;;;;;5034008;28;20075;-52
2023/05/01 00:14:58;;;;;;;8.45;5.22;;;;;;;;;;5016002;28;20039;-52
2023/05/01 00:17:24;;;;;;;8.73;5.95;;;;;;;;;;5033740;28;20056;-52
2023/05/01 00:19:52;;;;;;;9.77;5.90;;;;;;;;;;5033951;28;20083;-52
2023/05/01 00:22:17;;;;;;;7.72;5.25;;;;;;;;;;5033924;28;20360;-52
2023/05/01 00:24:43;;;;;;;7.80;5.38;;;;;;;;;;5033660;28;20036;-51
2023/05/01 00:27:08;;;;;;;6.28;4.90;;;;;;;;;;5033916;28;20168;-53
2023/05/01 00:29:33;;;;;;;6.93;4.97;;;;;;;;;;5016142;28;20083;-52
2023/05/01 00:31:59;;;;;;;12.82;8.68;;;;;;;;;;5033500;28;20091;-52
2023/05/01 00:34:24;;;;;;;8.25;4.85;;;;;;;;;;5015846;28;20030;-52
2023/05/01 00:36:49;;;;;;;7.15;4.55;;;;;;;;;;5033489;28;20087;-52
2023/05/01 00:39:15;;;;;;;6.43;4.60;;;;;;;;;;5015806;28;20017;-52
2023/05/01 00:41:40;;;;;;;7.97;4.97;;;;;;;;;;5015443;28;20061;-52
2023/05/01 00:44:05;;;;;;;7.57;4.18;;;;;;;;;;5034970;28;20048;-52
2023/05/01 00:46:32;;;;;;;5.90;4.25;;;;;;;;;;5037805;28;20040;-52
2023/05/01 00:48:58;;;;;;;5.53;4.28;;;;;;;;;;5037760;28;20051;-52
2023/05/01 00:51:24;;;;;;;8.20;4.10;;;;;;;;;;5037988;28;20124;-52
2023/05/01 00:53:50;;;;;;;7.65;4.10;;;;;;;;;;5036077;28;20037;-52
2023/05/01 00:56:16;;;;;;;7.50;4.35;;;;;;;;;;5037637;28;20029;-52
2023/05/01 00:58:41;;;;;;;7.95;5.28;;;;;;;;;;5037602;28;20022;-52
2023/05/01 01:01:09;;;;;;;7.65;4.55;;;;;;;;;;5037238;28;20032;-52
2023/05/01 01:03:34;;;;;;;7.07;4.50;;;;;;;;;;5019436;28;20030;-51
2023/05/01 01:06:05;;;;;;;6.90;3.80;;;;;;;;;;5037431;28;20028;-52
2023/05/01 01:08:51;;;;;;;7.05;4.57;;;;;;;;;;5037146;28;20029;-52
2023/05/01 01:11:22;;;;;;;8.32;4.20;;;;;;;;;;5015929;28;20498;-52
2023/05/01 01:13:53;;;;;;;5.35;4.00;;;;;;;;;;5035706;28;20025;-52
2023/05/01 01:16:40;;;;;;;4.95;4.45;;;;;;;;;;5035708;28;20029;-52
2023/05/01 01:19:06;;;;;;;7.95;4.72;;;;;;;;;;5019537;28;20378;-52
2023/05/01 01:21:37;;;;;;;5.70;4.38;;;;;;;;;;5035697;28;20021;-52
2023/05/01 01:24:02;;;;;;;;;;;;;;;;;;5037303;28;20368;-52
2023/05/01 01:26:36;;;;;;;10.25;6.18;;;;;;;;;;5035563;28;19916;-52
2023/05/01 01:29:11;;;;;;;7.15;5.13;;;;;;;;;;5037015;28;20080;-52
2023/05/01 01:31:49;;;;;;;7.80;5.25;;;;;;;;;;5035427;28;20033;-52
2023/05/01 01:34:26;;;;;;;8.68;4.93;;;;;;;;;;5037219;28;20056;-52
2023/05/01 01:36:51;;;;;;;8.13;5.07;;;;;;;;;;5036614;28;20029;-52
2023/05/01 01:39:26;;;;;;;6.00;4.57;;;;;;;;;;5036863;28;20550;-52
2023/05/01 01:41:52;;;;;;;5.18;4.00;;;;;;;;;;5036523;28;20034;-52
2023/05/01 01:44:33;;;;;;;4.25;3.28;;;;;;;;;;5035217;28;20053;-52
2023/05/01 01:47:01;;;;;;;4.80;3.50;;;;;;;;;;5018709;28;20482;-52
2023/05/01 01:49:28;;;;;;;6.75;3.53;;;;;;;;;;5035419;28;20524;-52
2023/05/01 01:51:54;;;;;;;10.07;5.50;;;;;;;;;;5035033;28;20064;-52
2023/05/01 01:54:25;;;;;;;9.13;6.25;;;;;;;;;;5035025;28;20033;-52
2023/05/01 01:56:51;;;;;;;11.15;6.47;;;;;;;;;;5034346;28;20032;-52
2023/05/01 01:59:17;;;;;;;11.85;6.55;;;;;;;;;;5018463;28;20034;-52
2023/05/01 02:01:44;;;;;;;11.88;6.32;;;;;;;;;;5034920;28;20060;-52
2023/05/01 02:04:10;;;;;;;9.10;6.30;;;;;;;;;;5036100;28;20013;-52
2023/05/01 02:06:36;;;;;;;9.43;6.07;;;;;;;;;;5034843;28;20052;-52
2023/05/01 02:09:05;;;;;;;10.43;5.82;;;;;;;;;;5036308;28;20033;-52
2023/05/01 02:11:30;;;;;;;11.73;5.60;;;;;;;;;;5034694;28;20052;-52
2023/05/01 02:13:56;;;;;;;8.27;5.72;;;;;;;;;;5036178;28;20458;-52
2023/05/01 02:16:24;;;;;;;7.57;4.57;;;;;;;;;;5035916;28;20056;-52
2023/05/01 02:18:50;;;;;;;8.18;4.68;;;;;;;;;;5035863;28;20034;-52
2023/05/01 02:21:17;;;;;;;6.05;4.38;;;;;;;;;;5018085;28;20029;-52
2023/05/01 02:23:42;;;;;;;4.15;3.83;;;;;;;;;;5034542;28;20091;-52
2023/05/01 02:26:11;;;;;;;5.40;3.85;;;;;;;;;;5035737;28;20483;-52
2023/05/01 02:28:40;;;;;;;5.00;3.95;;;;;;;;;;5035954;28;20049;-52
2023/05/01 02:31:05;;;;;;;5.35;4.40;;;;;;;;;;5036207;28;20108;-52
2023/05/01 02:33:31;;;;;;;5.40;4.10;;;;;;;;;;5035486;28;20503;-52
2023/05/01 02:35:56;;;;;;;6.15;4.53;;;;;;;;;;5034255;28;20034;-52
2023/05/01 02:38:22;;;;;;;5.47;4.03;;;;;;;;;;5017675;28;20030;-52
2023/05/01 02:40:49;;;;;;;5.10;4.60;;;;;;;;;;5017457;28;20037;-52
2023/05/01 02:43:17;;;;;;;8.25;5.50;;;;;;;;;;5035395;28;20047;-52
2023/05/01 02:45:43;;;;;;;8.32;5.65;;;;;;;;;;5017802;28;20029;-52
2023/05/01 02:48:10;;;;;;;13.10;6.05;;;;;;;;;;5017596;28;20447;-52
2023/05/01 02:50:39;;;;;;;8.68;5.63;;;;;;;;;;5035253;28;20041;-52
2023/05/01 02:53:05;;;;;;;9.73;6.85;;;;;;;;;;5033875;28;20082;-52
2023/05/01 02:55:42;;;;;;;9.15;6.28;;;;;;;;;;5017648;28;20072;-52
2023/05/01 02:58:13;;;;;;;8.77;5.65;;;;;;;;;;5035348;28;20053;-52
2023/05/01 03:00:38;;;;;;;;;;;;;;;;;;5017756;28;20029;-52
2023/05/01 03:03:03;;;;;;;11.95;6.10;;;;;;;;;;5033731;28;19909;-52
2023/05/01 03:05:29;;;;;;;9.48;5.88;;;;;;;;;;5017468;28;20021;-52
2023/05/01 03:07:54;;;;;;;11.52;6.43;;;;;;;;;;5034173;28;20388;-52
2023/05/01 03:10:19;;;;;;;10.85;6.20;;;;;;;;;;5017366;28;20037;-52
2023/05/01 03:12:45;;;;;;;9.13;6.03;;;;;;;;;;5035011;28;20021;-52
2023/05/01 03:15:11;;;;;;;10.85;6.80;;;;;;;;;;5034700;28;20029;-52
2023/05/01 03:17:36;;;;;;;12.00;6.30;;;;;;;;;;5034741;28;20033;-52
2023/05/01 03:20:05;;;;;;;8.80;5.85;;;;;;;;;;5035257;28;20037;-52
2023/05/01 03:22:31;;;;;;;11.00;6.47;;;;;;;;;;5034911;28;20228;-52
2023/05/01 03:24:57;;;;;;;12.70;6.82;;;;;;;;;;5016883;28;20037;-52
2023/05/01 03:27:22;;;;;;;9.57;5.90;;;;;;;;;;5033574;28;20479;-52
2023/05/01 03:29:56;;;;;;;9.55;5.50;;;;;;;;;;5071575;28;21035;-54
2023/05/01 03:32:22;;;;;;;11.15;5.60;;;;;;;;;;5069769;28;20036;-54
2023/05/01 03:34:49;;;;;;;9.40;6.22;;;;;;;;;;5069663;28;20058;-54
2023/05/01 03:37:16;;;;;;;9.52;5.80;;;;;;;;;;5069922;28;20031;-54
2023/05/01 03:39:41;;;;;;;10.48;5.82;;;;;;;;;;5069548;28;20033;-54
2023/05/01 03:42:32;;;;;;;7.78;5.70;;;;;;;;;;5070659;28;20044;-54
2023/05/01 03:45:05;;;;;;;8.73;5.82;;;;;;;;;;5069836;28;20048;-53
2023/05/01 03:47:30;;;;;;;8.55;5.60;;;;;;;;;;5070931;28;20059;-53
2023/05/01 03:49:55;;;;;;;9.68;5.53;;;;;;;;;;5069434;28;20029;-54
2023/05/01 03:52:21;;;;;;;8.40;5.35;;;;;;;;;;5070179;28;20025;-54
2023/05/01 03:54:48;;;;;;;11.40;5.82;;;;;;;;;;5069318;28;20037;-53
2023/05/01 03:57:22;;;;;;;9.05;5.15;;;;;;;;;;5069835;28;20051;-53
2023/05/01 03:59:48;;;;;;;8.88;5.47;;;;;;;;;;5069192;28;20041;-54
2023/05/01 04:02:15;;;;;;;8.50;5.45;;;;;;;;;;5069481;28;20052;-54
2023/05/01 04:04:41;;;;;;;5.75;4.75;;;;;;;;;;5069966;28;20115;-53
2023/05/01 04:07:06;;;;;;;7.45;4.85;;;;;;;;;;5070502;28;20064;-54
2023/05/01 04:09:31;;;;;;;6.63;4.93;;;;;;;;;;5070738;28;20017;-54
2023/05/01 04:11:57;;;;;;;6.22;4.70;;;;;;;;;;5068961;28;20048;-54
2023/05/01 04:14:22;;;;;;;6.32;4.97;;;;;;;;;;5068963;28;20022;-53
2023/05/01 04:16:48;;;;;;;6.43;4.63;;;;;;;;;;5070157;28;20037;-53
2023/05/01 04:19:13;;;;;;;6.22;4.43;;;;;;;;;;5068819;28;20021;-54
2023/05/01 04:21:41;;;;;;;6.53;4.50;;;;;;;;;;5069317;28;20025;-53
2023/05/01 04:24:07;;;;;;;6.88;3.95;;;;;;;;;;5070254;28;20040;-53
2023/05/01 04:26:32;;;;;;;8.57;5.38;;;;;;;;;;5069875;28;20107;-53
2023/05/01 04:28:59;;;;;;;8.48;5.00;;;;;;;;;;5068298;28;20043;-55
2023/05/01 04:31:25;;;;;;;12.48;6.75;;;;;;;;;;5068535;28;20025;-53
2023/05/01 04:33:50;;;;;;;9.10;6.18;;;;;;;;;;5051955;28;20029;-53
2023/05/01 04:36:16;;;;;;;8.10;5.70;;;;;;;;;;5068404;28;20020;-54
2023/05/01 04:38:45;;;;;;;5.43;4.40;;;;;;;;;;5069186;28;20029;-54
2023/05/01 04:41:11;;;;;;;8.45;4.57;;;;;;;;;;5054665;28;20052;-53
2023/05/01 04:43:36;;;;;;;6.90;4.50;;;;;;;;;;5052808;28;20101;-54
2023/05/01 04:46:02;;;;;;;9.70;4.75;;;;;;;;;;5055006;28;20082;-54
2023/05/01 04:48:28;;;;;;;7.80;5.18;;;;;;;;;;5054966;28;20027;-59
2023/05/01 04:50:54;;;;;;;10.00;6.20;;;;;;;;;;5054658;28;20017;-59
2023/05/01 04:53:20;;;;;;;11.60;6.82;;;;;;;;;;5054539;28;20039;-59
2023/05/01 04:55:46;;;;;;;7.50;5.07;;;;;;;;;;5055917;28;20029;-59
2023/05/01 04:58:13;;;;;;;10.07;5.15;;;;;;;;;;5054522;28;20043;-60
2023/05/01 05:00:42;;;;;;;8.77;5.18;;;;;;;;;;5054311;28;20387;-59
2023/05/01 05:03:11;;;;;;;7.90;5.70;;;;;;;;;;5053881;28;20498;-54
2023/05/01 05:05:39;;;;;;;6.53;5.05;;;;;;;;;;5053691;28;20041;-54
2023/05/01 05:08:06;;;;;;;8.13;4.95;;;;;;;;;;5051143;28;20087;-54
2023/05/01 05:10:36;;;;;;;7.32;4.53;;;;;;;;;;5054804;28;20025;-54
2023/05/01 05:13:28;;;;;;;7.95;4.30;;;;;;;;;;5047864;28;20017;-54
2023/05/01 05:15:59;;;;;;;7.50;4.07;;;;;;;;;;5053456;28;20052;-54
2023/05/01 05:18:25;;;;;;;6.68;4.30;;;;;;;;;;5053621;28;20021;-54
2023/05/01 05:20:51;;;;;;;8.55;4.55;;;;;;;;;;5053229;28;20044;-54
2023/05/01 05:23:16;;;;;;;6.10;4.70;;;;;;;;;;5053935;28;20121;-54
2023/05/01 05:25:42;;;;;;;6.47;4.20;;;;;;;;;;5055468;28;20052;-54
2023/05/01 05:28:08;;;;;;;4.65;3.95;;;;;;;;;;5053793;28;20502;-59
2023/05/01 05:30:34;;;;;;;6.32;3.88;;;;;;;;;;5054079;28;20031;-53
2023/05/01 05:33:02;;;;;;;5.82;3.50;;;;;;;;;;5052924;28;20029;-53
2023/05/01 05:35:27;;;;;;;5.60;3.78;;;;;;;;;;5054040;28;20059;-53
2023/05/01 05:37:53;;;;;;;4.20;3.45;;;;;;;;;;5052584;28;20061;-53
2023/05/01 05:40:19;;;;;;;5.95;3.40;;;;;;;;;;5052429;28;20112;-59
2023/05/01 05:42:53;;;;;;;5.40;3.30;;;;;;;;;;5052438;28;20036;-59
2023/05/01 05:45:20;;;;;;;5.22;3.30;;;;;;;;;;5053039;28;20047;-59
2023/05/01 05:47:45;;;;;;;4.47;3.40;;;;;;;;;;5037333;28;20028;-59
2023/05/01 05:50:11;;;;;;;7.00;3.05;;;;;;;;;;5053877;28;20029;-59
2023/05/01 05:52:37;;;;;;;4.80;2.58;;;;;;;;;;5052508;28;20033;-59
2023/05/01 05:55:03;;;;;;;4.40;2.80;;;;;;;;;;5053280;28;20368;-59
2023/05/01 05:57:29;;;;;;;5.95;2.88;;;;;;;;;;5053479;28;20025;-59
2023/05/01 05:59:55;;;;;;;4.90;3.35;;;;;;;;;;5053332;28;20052;-59
2023/05/01 06:02:22;;;;;;;4.53;2.75;;;;;;;;;;5053658;28;20115;-59
2023/05/01 06:04:48;;;;;;;4.00;2.78;;;;;;;;;;5053219;28;20067;-59
2023/05/01 06:07:16;;;;;;;4.85;3.17;;;;;;;;;;5053380;28;20109;-59
2023/05/01 06:09:42;;;;;;;4.40;3.08;;;;;;;;;;5053111;28;20116;-53
2023/05/01 06:12:07;;;;;;;4.28;3.35;;;;;;;;;;5054553;28;20124;-54
2023/05/01 06:14:33;;;;;;;5.68;2.83;;;;;;;;;;5053485;28;20076;-54
2023/05/01 06:16:58;;;;;;;9.27;5.63;;;;;;;;;;5054184;28;20096;-53
2023/05/01 06:19:25;;;;;;;4.35;2.80;;;;;;;;;;5053470;28;20025;-53
2023/05/01 06:21:57;;;;;;;6.55;3.13;;;;;;;;;;5052630;28;20463;-53
2023/05/01 06:24:22;;;;;;;3.75;2.55;;;;;;;;;;5051527;28;20107;-53
2023/05/01 06:26:50;;;;;;;4.53;2.38;;;;;;;;;;5053576;28;20452;-53
2023/05/01 06:29:16;;;;;;;2.58;2.35;;;;;;;;;;5052597;28;20051;-53
2023/05/01 06:31:41;;;;;;;4.43;2.42;;;;;;;;;;5051856;28;20043;-53
2023/05/01 06:34:07;;;;;;;5.30;3.30;;;;;;;;;;5051916;28;20035;-59
2023/05/01 06:36:44;;;;;;;3.33;2.00;;;;;;;;;;5052262;28;20043;-59
2023/05/01 06:39:10;;;;;;;2.85;2.03;;;;;;;;;;5052265;28;20507;-59
2023/05/01 06:41:37;;;;;;;3.50;2.15;;;;;;;;;;5052623;28;20024;-60
2023/05/01 06:44:03;;;;;;;4.05;2.22;;;;;;;;;;5052358;28;20055;-59
2023/05/01 06:46:29;;;;;;;2.90;2.00;;;;;;;;;;5053745;28;20064;-60
2023/05/01 06:48:55;;;;;;;4.88;1.73;;;;;;;;;;5051922;28;20059;-59
2023/05/01 06:51:20;;;;;;;4.22;1.70;;;;;;;;;;5052001;28;20033;-60
2023/05/01 06:53:46;;;;;;;2.38;1.88;;;;;;;;;;5051905;28;20029;-53
2023/05/01 06:56:11;;;;;;;2.42;2.10;;;;;;;;;;5052179;28;20162;-53
2023/05/01 06:58:36;;;;;;;3.10;1.90;;;;;;;;;;5053262;28;20360;-53
2023/05/01 07:01:02;;;;;;;2.33;1.48;;;;;;;;;;5051519;28;20067;-53
2023/05/01 07:03:27;;;;;;;1.98;1.60;;;;;;;;;;5053151;28;20048;-54
2023/05/01 07:05:53;;;;;;;2.90;1.55;;;;;;;;;;5053288;28;20032;-53
2023/05/01 07:08:19;;;;;;;2.17;1.70;;;;;;;;;;5053028;28;20033;-53
2023/05/01 07:10:44;;;;;;;3.03;1.60;;;;;;;;;;5052817;28;20430;-53
2023/05/01 07:13:10;;;;;;;2.85;1.60;;;;;;;;;;5052990;28;20024;-53
2023/05/01 07:15:36;;;;;;;6.78;1.85;;;;;;;;;;5053451;28;20116;-53
2023/05/01 07:18:04;;;;;;;2.17;1.48;;;;;;;;;;5053253;28;20132;-53
2023/05/01 07:20:29;;;;;;;2.83;1.92;;;;;;;;;;5053159;28;20064;-53
2023/05/01 07:22:55;;;;;;;4.05;1.77;;;;;;;;;;5053217;28;20056;-53
2023/05/01 07:25:20;;;;;;;2.50;1.80;;;;;;;;;;5052850;28;20043;-53
2023/05/01 07:27:45;;;;;;;3.63;2.15;;;;;;;;;;5051969;28;20386;-53
2023/05/01 07:30:11;;;;;;;3.35;1.60;;;;;;;;;;5051518;28;20517;-59
2023/05/01 07:32:36;;;;;;;2.92;1.85;;;;;;;;;;5052746;28;20025;-59
2023/05/01 07:35:02;;;;;;;1.90;1.70;;;;;;;;;;5052756;28;20387;-59
2023/05/01 07:37:29;;;;;;;3.88;1.95;;;;;;;;;;5050945;28;20447;-59
2023/05/01 07:39:55;;;;;;;3.42;1.60;;;;;;;;;;5052847;28;20048;-59
2023/05/01 07:42:20;;;;;;;2.83;1.88;;;;;;;;;;5053112;28;20037;-59
2023/05/01 07:44:45;;;;;;;3.75;2.10;;;;;;;;;;5053285;28;20056;-59
2023/05/01 07:47:12;;;;;;;3.83;2.00;;;;;;;;;;5052812;28;20473;-59
2023/05/01 07:49:37;;;;;;;2.88;2.42;;;;;;;;;;5052542;28;20509;-59
2023/05/01 07:52:04;;;;;;;3.42;1.67;;;;;;;;;;5052185;28;20115;-59
2023/05/01 07:54:30;;;;;;;4.40;1.70;;;;;;;;;;5052194;28;20063;-59
2023/05/01 07:56:55;;;;;;;4.20;2.10;;;;;;;;;;5050985;28;20025;-59
2023/05/01 07:59:20;;;;;;;4.15;1.75;;;;;;;;;;5050832;28;20029;-59
2023/05/01 08:01:46;;;;;;;3.53;2.38;;;;;;;;;;5052114;28;20483;-59
2023/05/01 08:04:11;;;;;;;3.67;2.33;;;;;;;;;;5052132;28;20058;-59
2023/05/01 08:06:43;;;;;;;4.78;2.00;;;;;;;;;;5052601;28;20025;-59
2023/05/01 08:09:08;;;;;;;3.30;1.80;;;;;;;;;;5052519;28;20057;-59
2023/05/01 08:11:34;;;;;;;2.08;1.70;;;;;;;;;;5052744;28;20456;-59
2023/05/01 08:13:59;;;;;;;6.57;2.67;;;;;;;;;;5052778;28;20124;-59
2023/05/01 08:16:26;;;;;;;3.92;2.20;;;;;;;;;;5055923;28;20079;-59
2023/05/01 08:18:51;;;;;;;4.78;1.95;;;;;;;;;;5056828;28;20407;-59
2023/05/01 08:21:17;;;;;;;3.33;1.80;;;;;;;;;;5056999;28;20029;-59
2023/05/01 08:23:43;;;;;;;4.28;2.20;;;;;;;;;;5056738;28;20387;-59
2023/05/01 08:26:08;;;;;;;3.13;1.98;;;;;;;;;;5055907;28;20036;-59
2023/05/01 08:28:34;;;;;;;3.50;2.10;;;;;;;;;;5055371;28;20124;-59
2023/05/01 08:30:59;;;;;;;6.88;2.80;;;;;;;;;;5055594;28;20036;-59
2023/05/01 08:33:25;;;;;;;3.00;2.00;;;;;;;;;;5055335;28;20363;-59
2023/05/01 08:35:51;;;;;;;3.65;1.85;;;;;;;;;;5055456;28;20032;-59
2023/05/01 08:38:17;;;;;;;3.35;2.00;;;;;;;;;;5055403;28;20037;-59
2023/05/01 08:40:45;;;;;;;5.50;2.58;;;;;;;;;;5055633;28;20029;-59
2023/05/01 08:43:12;;;;;;;4.50;2.28;;;;;;;;;;5055443;28;20032;-59
2023/05/01 08:45:37;;;;;;;3.47;2.00;;;;;;;;;;5055286;28;20394;-59
2023/05/01 08:48:06;;;;;;;5.95;2.38;;;;;;;;;;5055203;28;20037;-59
2023/05/01 08:50:33;;;;;;;3.45;2.20;;;;;;;;;;5056198;28;20040;-59
2023/05/01 08:52:59;;;;;;;4.47;2.42;;;;;;;;;;5056262;28;20032;-59
2023/05/01 08:55:25;;;;;;;2.13;1.92;;;;;;;;;;5056205;28;20425;-59
2023/05/01 08:57:50;;;;;;;2.58;1.77;;;;;;;;;;5056087;28;20032;-59
2023/05/01 09:00:19;;;;;;;3.47;2.20;;;;;;;;;;5055063;28;20009;-59
2023/05/01 09:02:48;;;;;;;2.80;2.15;;;;;;;;;;5056136;28;20025;-59
2023/05/01 09:05:17;;;;;;;2.20;2.00;;;;;;;;;;5055118;28;20021;-59
2023/05/01 09:07:44;;;;;;;2.08;1.95;;;;;;;;;;5055928;28;20485;-59
2023/05/01 09:10:14;;;;;;;2.03;1.70;;;;;;;;;;5055886;28;20016;-59
2023/05/01 09:12:40;;;;;;;3.78;2.28;;;;;;;;;;5054642;28;20475;-59
2023/05/01 09:15:06;;;;;;;3.13;1.85;;;;;;;;;;5055791;28;20039;-59
2023/05/01 09:17:32;;;;;;;2.95;1.80;;;;;;;;;;5055929;28;20108;-59
2023/05/01 09:19:58;;;;;;;2.00;1.80;;;;;;;;;;5055840;28;20029;-59
2023/05/01 09:22:23;;;;;;;2.83;1.90;;;;;;;;;;5055763;28;20450;-59
2023/05/01 09:24:48;;;;;;;3.35;2.30;;;;;;;;;;5055683;28;20025;-59
2023/05/01 09:27:14;;;;;;;2.55;1.88;;;;;;;;;;5055756;28;20063;-59
2023/05/01 09:29:46;;;;;;;3.05;2.30;;;;;;;;;;5054745;28;20052;-59
2023/05/01 09:32:16;;;;;;;3.38;2.08;;;;;;;;;;5055825;28;20079;-59
2023/05/01 09:34:42;;;;;;;6.40;2.63;;;;;;;;;;5055734;28;20059;-59
2023/05/01 09:37:09;;;;;;;3.20;2.33;;;;;;;;;;5055224;28;20119;-53
2023/05/01 09:39:35;;;;;;;2.78;2.30;;;;;;;;;;5055264;28;20086;-53
2023/05/01 09:42:02;;;;;;;4.65;2.42;;;;;;;;;;5055514;28;20025;-53
2023/05/01 09:44:27;;;;;;;3.15;2.10;;;;;;;;;;5055320;28;20482;-53
2023/05/01 09:46:53;;;;;;;4.13;2.80;;;;;;;;;;5055211;28;20040;-53
2023/05/01 09:49:18;;;;;;;3.92;2.50;;;;;;;;;;5053941;28;20037;-53
2023/05/01 09:51:43;;;;;;;2.55;2.10;;;;;;;;;;5055069;28;20151;-53
2023/05/01 09:54:19;;;;;;;4.90;2.15;;;;;;;;;;5055027;28;20483;-53
2023/05/01 09:56:46;;;;;;;1.60;1.50;;;;;;;;;;5055127;28;20067;-54
2023/05/01 09:59:15;;;;;;;2.17;1.60;;;;;;;;;;5054967;28;20426;-53
2023/05/01 10:01:43;;;;;;;2.30;2.03;;;;;;;;;;5054923;28;20028;-53
2023/05/01 10:04:08;;;;;;;4.47;2.28;;;;;;;;;;5055110;28;20029;-54
2023/05/01 10:06:35;;;;;;;4.90;2.22;;;;;;;;;;5054834;28;20024;-53
2023/05/01 10:09:01;;;;;;;2.95;2.30;;;;;;;;;;5054773;28;20033;-54
2023/05/01 10:11:27;;;;;;;2.45;1.95;;;;;;;;;;5054728;28;20029;-53
2023/05/01 10:14:03;;;;;;;3.83;2.65;;;;;;;;;;5054825;28;20021;-53
2023/05/01 10:16:29;;;;;;;5.63;2.42;;;;;;;;;;5054607;28;20443;-54
2023/05/01 10:18:56;;;;;;;3.72;2.28;;;;;;;;;;5054597;28;20057;-53
2023/05/01 10:21:21;;;;;;;3.70;2.30;;;;;;;;;;5054512;28;20033;-53
2023/05/01 10:23:47;;;;;;;3.72;2.28;;;;;;;;;;5054654;28;20108;-53
2023/05/01 10:26:12;;;;;;;2.85;2.60;;;;;;;;;;5052605;28;20033;-53
2023/05/01 10:28:38;;;;;;;2.50;2.00;;;;;;;;;;5052815;28;20048;-54
2023/05/01 10:31:04;;;;;;;2.58;2.10;;;;;;;;;;5052903;28;20376;-53
2023/05/01 10:33:30;;;;;;;4.47;2.10;;;;;;;;;;5050173;28;20104;-53
2023/05/01 10:35:58;;;;;;;6.32;2.45;;;;;;;;;;5052873;28;20436;-53
2023/05/01 10:38:25;;;;;;;4.15;2.58;;;;;;;;;;5051018;28;20071;-54
2023/05/01 10:40:51;;;;;;;4.45;1.90;;;;;;;;;;5050329;28;20033;-53
2023/05/01 10:43:24;;;;;;;3.45;2.10;;;;;;;;;;5052690;28;20029;-53
2023/05/01 10:45:51;;;;;;;3.13;1.83;;;;;;;;;;5050023;28;20029;-53
2023/05/01 10:48:41;;;;;;;4.63;2.00;;;;;;;;;;5052566;28;20377;-54
2023/05/01 10:51:14;;;;;;;2.35;2.13;;;;;;;;;;5048437;28;20036;-53
2023/05/01 10:53:46;;;;;;;5.18;2.00;;;;;;;;;;5052579;28;20025;-53
2023/05/01 10:56:20;;;;;;;1.55;1.38;;;;;;;;;;5050365;28;20374;-54
2023/05/01 10:58:50;;;;;;;5.20;2.72;;;;;;;;;;5052377;28;20029;-53
2023/05/01 11:01:29;;;;;;;4.10;2.43;;;;;;;;;;5052441;28;20467;-54
2023/05/01 11:03:55;;;;;;;4.20;2.20;;;;;;;;;;5049426;28;20378;-54
2023/05/01 11:06:21;;;;;;;2.95;2.65;;;;;;;;;;5052599;28;20035;-53
2023/05/01 11:08:47;;;;;;;1.83;1.63;;;;;;;;;;5052163;28;20233;-53
2023/05/01 11:11:22;;;;;;;2.67;1.58;;;;;;;;;;5052376;28;20032;-54
2023/05/01 11:14:03;;;;;;;2.85;2.00;;;;;;;;;;5052160;28;20035;-53
2023/05/01 11:16:38;;;;;;;2.03;1.83;;;;;;;;;;5052275;28;20025;-53
2023/05/01 11:19:03;;;;;;;2.30;1.88;;;;;;;;;;5052244;28;20029;-53
2023/05/01 11:21:29;;;;;;;4.75;2.85;;;;;;;;;;5052377;28;20367;-53
2023/05/01 11:23:55;;;;;;;3.70;2.30;;;;;;;;;;5052006;28;20040;-53
2023/05/01 11:26:21;;;;;;;3.78;2.20;;;;;;;;;;5050491;28;20028;-53
2023/05/01 11:28:47;;;;;;;2.45;2.15;;;;;;;;;;5051159;28;20052;-53
2023/05/01 11:31:16;;;;;;;7.40;2.20;;;;;;;;;;5051455;28;20021;-54
2023/05/01 11:33:41;;;;;;;3.03;1.88;;;;;;;;;;5051364;28;20387;-54
2023/05/01 11:36:07;;;;;;;2.42;1.95;;;;;;;;;;5051422;28;20048;-53
2023/05/01 11:38:33;;;;;;;2.35;2.15;;;;;;;;;;5051833;28;20025;-54
2023/05/01 11:40:59;;;;;;;3.92;1.83;;;;;;;;;;5053966;28;20375;-54
2023/05/01 11:43:25;;;;;;;1.95;1.60;;;;;;;;;;5053706;28;20033;-53
2023/05/01 11:45:51;;;;;;;1.88;1.70;;;;;;;;;;5053422;28;20056;-54
2023/05/01 11:48:17;;;;;;;1.95;1.50;;;;;;;;;;5053551;28;20387;-54
2023/05/01 11:50:42;;;;;;;2.10;1.80;;;;;;;;;;5055540;28;20040;-53
2023/05/01 11:53:13;;;;;;;2.33;1.80;;;;;;;;;;5057315;28;20032;-54
2023/05/01 11:55:38;;;;;;;2.78;1.92;;;;;;;;;;5057575;28;20039;-53
2023/05/01 11:58:05;;;;;;;2.38;1.73;;;;;;;;;;5057178;28;20033;-53
2023/05/01 12:00:32;;;;;;;3.25;2.10;;;;;;;;;;5055944;28;20024;-53
2023/05/01 12:02:59;;;;;;;5.35;2.15;;;;;;;;;;5056308;28;20039;-53
2023/05/01 12:05:25;;;;;;;2.08;1.40;;;;;;;;;;5057698;28;20021;-54
2023/05/01 12:07:50;;;;;;;3.58;2.00;;;;;;;;;;5056043;28;20055;-53
2023/05/01 12:10:16;;;;;;;4.28;2.38;;;;;;;;;;5055961;28;20029;-53
2023/05/01 12:12:42;;;;;;;3.60;1.92;;;;;;;;;;5055900;28;20056;-54
2023/05/01 12:15:07;;;;;;;1.65;1.27;;;;;;;;;;5056101;28;20127;-53
2023/05/01 12:17:33;;;;;;;1.80;1.70;;;;;;;;;;5055788;28;20107;-54
2023/05/01 12:19:58;;;;;;;2.67;1.85;;;;;;;;;;5055804;28;20037;-54
2023/05/01 12:22:24;;;;;;;1.95;1.73;;;;;;;;;;5055761;28;20038;-54
2023/05/01 12:24:51;;;;;;;2.78;1.63;;;;;;;;;;5055742;28;20048;-53
2023/05/01 12:27:16;;;;;;;2.70;1.65;;;;;;;;;;5055665;28;20116;-53
2023/05/01 12:29:45;;;;;;;4.10;1.92;;;;;;;;;;5055355;28;20135;-54
2023/05/01 12:32:11;;;;;;;1.98;1.88;;;;;;;;;;5055589;28;20060;-53
2023/05/01 12:34:37;;;;;;;3.42;1.90;;;;;;;;;;5056056;28;20059;-53
2023/05/01 12:37:02;;;;;;;2.50;1.90;;;;;;;;;;5055539;28;20049;-53
2023/05/01 12:39:36;;;;;;;2.50;1.75;;;;;;;;;;5055647;28;20059;-53
2023/05/01 12:42:01;;;;;;;2.80;1.65;;;;;;;;;;5055416;28;20033;-53
2023/05/01 12:44:29;;;;;;;3.05;2.10;;;;;;;;;;5055638;28;20033;-54
2023/05/01 12:46:59;;;;;;;2.47;1.63;;;;;;;;;;5055417;28;20095;-53
2023/05/01 12:49:24;;;;;;;4.78;2.78;;;;;;;;;;5055505;28;20112;-53
2023/05/01 12:51:50;;;;;;;4.30;2.25;;;;;;;;;;5055300;28;20439;-54
2023/05/01 12:54:24;;;;;;;2.00;1.90;;;;;;;;;;5055224;28;20040;-53
2023/05/01 12:56:53;;;;;;;3.33;2.15;;;;;;;;;;5055165;28;20032;-53
2023/05/01 12:59:20;;;;;;;2.92;2.10;;;;;;;;;;5055027;28;20016;-53
2023/05/01 13:01:45;;;;;;;2.97;2.20;;;;;;;;;;5054535;28;20029;-53
2023/05/01 13:04:11;;;;;;;3.45;2.78;;;;;;;;;;5055016;28;20044;-54
2023/05/01 13:06:36;;;;;;;3.08;2.10;;;;;;;;;;5055150;28;20021;-53
2023/05/01 13:09:09;;;;;;;3.13;1.80;;;;;;;;;;5054769;28;20044;-53
2023/05/01 13:11:34;;;;;;;2.50;2.22;;;;;;;;;;5054896;28;20039;-53
2023/05/01 13:14:06;;;;;;;3.35;1.70;;;;;;;;;;5055042;28;20017;-53
2023/05/01 13:16:31;;;;;;;2.38;1.58;;;;;;;;;;5054722;28;20475;-53
2023/05/01 13:18:57;;;;;;;2.85;2.38;;;;;;;;;;5054730;28;20037;-53
2023/05/01 13:21:22;;;;;;;2.75;2.20;;;;;;;;;;5054635;28;20409;-54
2023/05/01 13:23:54;;;;;;;3.67;2.20;;;;;;;;;;5054595;28;20112;-54
2023/05/01 13:26:27;;;;;;;2.15;1.70;;;;;;;;;;5054493;28;20036;-53
2023/05/01 13:28:53;;;;;;;3.20;1.90;;;;;;;;;;5054430;28;20045;-54
2023/05/01 13:31:18;;;;;;;2.97;1.88;;;;;;;;;;5053169;28;20547;-53
2023/05/01 13:33:43;;;;;;;2.63;1.92;;;;;;;;;;5054435;28;20021;-53
2023/05/01 13:36:13;;;;;;;4.65;2.00;;;;;;;;;;5054419;28;20032;-53
2023/05/01 13:38:45;;;;;;;2.65;1.90;;;;;;;;;;5054425;28;20089;-53
2023/05/01 13:41:15;;;;;;;3.03;2.10;;;;;;;;;;5054082;28;20040;-53
2023/05/01 13:43:41;;;;;;;3.75;1.92;;;;;;;;;;5054268;28;20399;-53
2023/05/01 13:46:08;;;;;;;3.97;1.73;;;;;;;;;;5054233;28;20029;-59
2023/05/01 13:48:33;;;;;;;5.10;3.95;;;;;;;;;;5052770;28;20033;-59
2023/05/01 13:50:58;;;;;;;4.72;1.90;;;;;;;;;;5054064;28;20028;-59
2023/05/01 13:53:24;;;;;;;3.65;1.95;;;;;;;;;;5054290;28;20387;-59
2023/05/01 13:55:49;;;;;;;4.38;2.83;;;;;;;;;;5053995;28;20345;-59
2023/05/01 13:58:15;;;;;;;2.55;1.83;;;;;;;;;;5054053;28;20036;-59
2023/05/01 14:00:43;;;;;;;4.10;2.50;;;;;;;;;;5052936;28;20020;-59
2023/05/01 14:03:09;;;;;;;5.32;2.22;;;;;;;;;;5053826;28;20035;-59
2023/05/01 14:05:35;;;;;;;3.10;2.47;;;;;;;;;;5053832;28;20060;-59
2023/05/01 14:08:01;;;;;;;5.25;2.88;;;;;;;;;;5052397;28;20032;-59
2023/05/01 14:10:27;;;;;;;3.10;2.65;;;;;;;;;;5053669;28;20017;-59
2023/05/01 14:12:59;;;;;;;4.88;3.08;;;;;;;;;;5051804;28;20033;-59
2023/05/01 14:15:24;;;;;;;3.45;3.15;;;;;;;;;;5052361;28;20021;-59
2023/05/01 14:17:51;;;;;;;9.15;3.53;;;;;;;;;;5053403;28;20426;-59
2023/05/01 14:20:16;;;;;;;4.82;3.20;;;;;;;;;;5051566;28;20029;-59
2023/05/01 14:22:46;;;;;;;3.75;2.47;;;;;;;;;;5051782;28;20025;-59
2023/05/01 14:25:20;;;;;;;4.33;2.60;;;;;;;;;;5052116;28;20029;-59
2023/05/01 14:27:46;;;;;;;4.18;2.38;;;;;;;;;;5052184;28;20021;-59
2023/05/01 14:30:29;;;;;;;3.55;2.47;;;;;;;;;;5052465;28;20542;-59
2023/05/01 14:32:54;;;;;;;3.42;1.98;;;;;;;;;;5051921;28;20036;-59
2023/05/01 14:35:21;;;;;;;8.68;4.28;;;;;;;;;;5051386;28;20033;-59
2023/05/01 14:37:46;;;;;;;3.97;2.15;;;;;;;;;;5051158;28;20036;-59
2023/05/01 14:40:12;;;;;;;3.25;2.33;;;;;;;;;;5051188;28;20029;-59
2023/05/01 14:42:42;;;;;;;2.38;2.08;;;;;;;;;;5051201;28;20036;-59